Terminal Aerodrome Forecast
Issued by NWS Memphis, TN

Home | Current Version | Previous Version | Text Only | Print | Product List | Glossary On
Versions: 1 2 3 4 5 6 7 8 9 10 11 12 13 14 15 16 17 18
000
FTUS44 KMEG 260530
TAFJBR
TAF
KJBR 260530Z 2606/2706 27006KT P6SM SCT050
     FM260800 34009KT P6SM BKN015
      TEMPO 2610/2614 OVC008
     FM261400 03012G18KT P6SM OVC008
     FM261600 04012G18KT P6SM OVC015
     FM261800 04012G18KT P6SM BKN025
     FM262100 04010KT P6SM BKN035
     FM270000 04009KT P6SM SCT250=

USA.gov is the U.S. government's official web portal to all federal, state and local government web resources and services.